Time;durP1;ratioP1;P1;durP2;ratioP2;P2;SDS_P1;SDS_P2;PMS_P1;PMS_P2;Temp;Humidity;BMP_temperature;BMP_pressure;BME280_temperature;BME280_humidity;BME280_pressure;Samples;Min_cycle;Max_cycle;Signal;HPM_P1;HPM_P2
2022/06/11 00:01:38;;;;;;;67.72;19.00;;;;;;;31.75;70.11;97116.06;4875638;29;20675;-67
2022/06/11 00:04:31;;;;;;;71.18;19.30;;;;;;;31.67;69.70;97113.66;4892418;29;20468;-67
2022/06/11 00:07:27;;;;;;;75.18;19.58;;;;;;;31.65;69.84;97112.25;4888332;29;20057;-69
2022/06/11 00:10:10;;;;;;;69.03;20.05;;;;;;;31.60;69.97;97120.84;4882604;29;20067;-67
2022/06/11 00:12:59;;;;;;;65.93;20.63;;;;;;;31.54;70.09;97119.84;4881397;29;20187;-67
2022/06/11 00:15:42;;;;;;;71.18;22.40;;;;;;;31.52;72.10;97121.94;4874486;29;20148;-69
2022/06/11 00:18:31;;;;;;;84.93;27.10;;;;;;;31.49;71.37;97125.03;4873533;29;20045;-68
2022/06/11 00:21:22;;;;;;;76.95;23.05;;;;;;;31.43;67.21;97125.91;4870469;29;20052;-67
2022/06/11 00:24:04;;;;;;;66.05;21.98;;;;;;;31.39;62.12;97129.19;4866126;29;20049;-67
2022/06/11 00:26:55;;;;;;;64.50;23.23;;;;;;;31.39;57.08;97138.00;4862671;29;20106;-68
2022/06/11 00:29:46;;;;;;;71.70;23.55;;;;;;;31.43;59.36;97147.19;4860298;29;20057;-68
2022/06/11 00:32:29;;;;;;;63.63;23.02;;;;;;;31.43;59.26;97138.41;4864245;29;20160;-68
2022/06/11 00:35:18;;;;;;;54.47;23.40;;;;;;;31.41;57.51;97145.78;4862235;29;20076;-68
2022/06/11 00:38:00;;;;;;;63.80;22.08;;;;;;;31.35;51.55;97144.78;4847395;29;20052;-68
2022/06/11 00:40:52;;;;;;;51.67;18.42;;;;;;;31.34;52.19;97155.66;4862335;29;20151;-68
2022/06/11 00:43:42;;;;;;;54.28;18.17;;;;;;;31.33;46.36;97157.50;4842199;29;20046;-68
2022/06/11 00:47:08;;;;;;;37.33;16.55;;;;;;;31.35;48.88;97160.78;4844919;29;20050;-67
2022/06/11 00:50:04;;;;;;;37.55;14.73;;;;;;;31.33;49.43;97162.00;4844169;29;20118;-68
2022/06/11 00:52:57;;;;;;;35.00;12.23;;;;;;;31.30;49.12;97157.91;4845157;29;20493;-67
2022/06/11 00:55:47;;;;;;;33.10;11.43;;;;;;;31.27;44.46;97163.69;4843923;29;20289;-67
2022/06/11 00:58:37;;;;;;;30.38;9.50;;;;;;;31.34;44.60;97167.13;4844190;29;20457;-68
2022/06/11 01:01:28;;;;;;;28.80;9.68;;;;;;;31.36;44.05;97169.56;4846648;29;20123;-68
2022/06/11 01:04:34;;;;;;;32.60;9.13;;;;;;;31.39;46.13;97161.97;4844500;29;20054;-67
2022/06/11 01:07:32;;;;;;;29.23;9.68;;;;;;;31.39;44.67;97161.13;4834143;29;20458;-67
2022/06/11 01:10:36;;;;;;;25.42;9.57;;;;;;;31.40;42.46;97157.44;4838888;29;20506;-66
2022/06/11 01:14:02;;;;;;;32.03;9.90;;;;;;;31.39;43.67;97151.31;4832835;29;20108;-67
2022/06/11 01:17:06;;;;;;;18.48;9.30;;;;;;;31.45;45.89;97155.75;4845435;29;20049;-66
2022/06/11 01:20:16;;;;;;;35.38;10.93;;;;;;;31.46;44.71;97157.41;4850151;29;20053;-68
2022/06/11 01:23:26;;;;;;;30.77;11.77;;;;;;;31.50;46.56;97161.28;4866316;29;20049;-67
2022/06/11 01:26:35;;;;;;;30.70;11.93;;;;;;;31.55;46.04;97157.97;4851606;29;20050;-65
2022/06/11 01:29:35;;;;;;;51.60;15.90;;;;;;;31.57;42.75;97158.56;4852042;29;20046;-67
2022/06/11 01:32:51;;;;;;;41.35;15.23;;;;;;;31.70;47.35;97163.00;4835540;29;20307;-66
2022/06/11 01:35:57;;;;;;;40.88;15.68;;;;;;;31.79;48.72;97161.69;4836057;29;20422;-66
2022/06/11 01:39:18;;;;;;;51.85;18.15;;;;;;;31.87;49.22;97162.25;4839240;29;20105;-67
2022/06/11 01:42:28;;;;;;;47.47;17.38;;;;;;;31.97;50.09;97166.28;4841091;29;20053;-67
2022/06/11 01:45:31;;;;;;;58.75;17.42;;;;;;;32.01;45.04;97178.13;4869935;29;20049;-67
2022/06/11 01:48:27;;;;;;;51.73;18.53;;;;;;;32.26;44.84;97190.41;4870873;29;20155;-67
2022/06/11 01:51:23;;;;;;;46.05;17.77;;;;;;;32.56;45.16;97192.38;4870184;29;20384;-67
2022/06/11 01:54:41;;;;;;;45.08;18.48;;;;;;;32.86;46.39;97195.97;4867522;29;20148;-69
2022/06/11 01:57:58;;;;;;;37.95;13.65;;;;;;;32.83;46.38;97207.06;4881024;29;20045;-67
2022/06/11 02:00:38;;;;;;;33.70;11.93;;;;;;;32.97;45.22;97205.88;4870339;29;20051;-67
2022/06/11 02:03:34;;;;;;;29.05;12.77;;;;;;;33.23;46.27;97196.75;4856009;29;20060;-66
2022/06/11 02:06:47;;;;;;;36.97;11.20;;;;;;;33.40;48.06;97202.28;4870054;29;20060;-67
2022/06/11 02:09:49;;;;;;;36.03;12.05;;;;;;;33.43;47.66;97201.84;4870519;29;20118;-67
2022/06/11 02:12:56;;;;;;;30.20;10.73;;;;;;;33.86;46.61;97206.13;4858192;29;20052;-68
2022/06/11 02:16:02;;;;;;;31.23;10.50;;;;;;;33.82;47.09;97199.63;4869970;29;20064;-68
2022/06/11 02:18:53;;;;;;;27.30;10.57;;;;;;;33.83;47.06;97198.59;4851659;29;20129;-67
2022/06/11 02:21:52;;;;;;;29.42;9.95;;;;;;;34.06;48.26;97198.63;4870113;29;20124;-67
2022/06/11 02:24:52;;;;;;;28.60;10.52;;;;;;;34.15;43.56;97194.56;4870183;29;20057;-67
2022/06/11 02:27:37;;;;;;;24.75;12.18;;;;;;;34.26;41.87;97200.97;4869354;29;20072;-67
2022/06/11 02:30:29;;;;;;;32.67;12.85;;;;;;;34.37;45.20;97203.66;4855808;29;20439;-67
2022/06/11 02:33:14;;;;;;;42.17;14.52;;;;;;;34.69;46.20;97205.94;4869810;29;20053;-67
2022/06/11 02:36:16;;;;;;;32.00;12.45;;;;;;;34.95;41.13;97205.47;4866317;29;20057;-68
2022/06/11 02:39:04;;;;;;;26.15;12.75;;;;;;;35.27;45.19;97209.34;4869457;29;20589;-67
2022/06/11 02:41:53;;;;;;;40.35;11.73;;;;;;;35.44;41.31;97219.31;4869938;29;20067;-69
2022/06/11 02:44:42;;;;;;;35.25;12.90;;;;;;;35.75;41.64;97216.13;4870180;29;20125;-67
2022/06/11 02:47:37;;;;;;;35.03;13.25;;;;;;;35.95;40.64;97213.78;4870145;29;20056;-67
2022/06/11 02:50:24;;;;;;;37.05;13.35;;;;;;;35.91;42.17;97211.84;4869993;29;20057;-67
2022/06/11 02:53:13;;;;;;;33.10;13.65;;;;;;;36.12;39.77;97204.94;4873174;29;20056;-67
2022/06/11 02:56:02;;;;;;;28.88;13.20;;;;;;;36.35;38.70;97197.53;4879604;29;20056;-66
2022/06/11 02:58:44;;;;;;;29.73;13.35;;;;;;;36.18;40.34;97195.88;4882021;29;20049;-67
2022/06/11 03:01:33;;;;;;;40.15;14.15;;;;;;;36.10;36.42;97196.31;4890645;29;20761;-67
2022/06/11 03:04:16;;;;;;;;;;;;;;;36.29;38.12;97193.16;4899829;29;20048;-66
2022/06/11 03:07:08;;;;;;;39.38;14.45;;;;;;;35.88;35.02;97215.81;4900311;29;19931;-66
2022/06/11 03:09:50;;;;;;;30.77;14.98;;;;;;;35.82;40.14;97218.66;4892363;29;20067;-66
2022/06/11 03:12:39;;;;;;;37.75;16.77;;;;;;;35.95;40.90;97232.56;4890300;29;20080;-66
2022/06/11 03:15:23;;;;;;;43.15;17.65;;;;;;;36.41;39.07;97249.41;4884517;29;20061;-66
2022/06/11 03:18:13;;;;;;;35.55;15.35;;;;;;;36.53;37.36;97250.13;4860651;29;20053;-67
2022/06/11 03:20:56;;;;;;;34.75;13.90;;;;;;;36.54;36.62;97254.44;4860817;29;20049;-68
2022/06/11 03:23:44;;;;;;;33.83;15.30;;;;;;;36.61;40.62;97257.75;4869895;29;20063;-68
2022/06/11 03:26:26;;;;;;;40.50;15.35;;;;;;;36.71;40.94;97252.56;4840654;29;20128;-66
2022/06/11 03:29:16;;;;;;;43.80;14.23;;;;;;;36.89;37.35;97259.50;4871645;29;20072;-68
2022/06/11 03:31:58;;;;;;;47.92;14.60;;;;;;;36.90;35.51;97255.75;4872475;29;20500;-67
2022/06/11 03:34:47;;;;;;;60.08;19.40;;;;;;;36.85;34.82;97257.56;4872648;29;20207;-67
2022/06/11 03:37:43;;;;;;;48.08;20.17;;;;;;;37.11;39.36;97268.41;4868134;29;20049;-68
2022/06/11 03:40:19;;;;;;;58.95;19.63;;;;;;;37.49;38.14;97261.34;4853794;29;20081;-68
2022/06/11 03:43:15;;;;;;;57.53;19.50;;;;;;;37.74;35.62;97275.09;4874837;29;20144;-68
2022/06/11 03:46:07;;;;;;;53.15;20.83;;;;;;;37.96;34.69;97268.81;4892057;29;20060;-67
2022/06/11 03:48:55;;;;;;;48.80;20.10;;;;;;;38.16;39.48;97269.00;4891283;29;20787;-68
2022/06/11 03:51:45;;;;;;;50.78;17.38;;;;;;;38.34;36.90;97270.50;4861275;29;20342;-67
2022/06/11 03:54:35;;;;;;;48.63;14.57;;;;;;;38.05;33.13;97268.13;4882621;29;20067;-68
2022/06/11 03:57:31;;;;;;;41.85;13.20;;;;;;;38.34;34.84;97260.56;4872194;29;20156;-68
2022/06/11 04:00:11;;;;;;;35.30;13.10;;;;;;;38.47;35.96;97257.44;4872390;29;20632;-68
2022/06/11 04:02:59;;;;;;;44.50;12.40;;;;;;;38.33;34.51;97260.81;4872713;29;20052;-69
2022/06/11 04:05:43;;;;;;;46.35;13.63;;;;;;;38.60;35.83;97251.63;4872422;29;20135;-68
2022/06/11 04:08:33;;;;;;;45.72;14.13;;;;;;;38.56;33.21;97260.44;4872179;29;20045;-68
2022/06/11 04:11:15;;;;;;;;;;;;;;;38.92;34.01;97272.25;4872988;29;20168;-68
2022/06/11 04:14:04;;;;;;;51.60;17.30;;;;;;;39.17;36.00;97266.22;4860242;29;20325;-68
2022/06/11 04:16:57;;;;;;;58.60;19.23;;;;;;;39.14;34.24;97269.41;4853510;29;20636;-69
2022/06/11 04:19:49;;;;;;;53.47;21.85;;;;;;;39.20;34.50;97279.94;4853200;29;20749;-66
2022/06/11 04:22:30;;;;;;;77.32;23.35;;;;;;;38.97;34.45;97278.50;4853092;29;20154;-67
2022/06/11 04:25:21;;;;;;;67.97;23.15;;;;;;;38.63;35.05;97277.22;4853190;29;20529;-66
2022/06/11 04:28:09;;;;;;;53.92;20.98;;;;;;;38.60;36.68;97278.53;4855946;29;20069;-68
2022/06/11 04:30:52;;;;;;;52.28;21.15;;;;;;;38.80;35.14;97283.22;4853971;29;20073;-67
2022/06/11 04:33:41;;;;;;;70.75;22.92;;;;;;;38.90;34.79;97282.47;4865203;29;20163;-67
2022/06/11 04:36:24;;;;;;;;;;;;;;;39.00;34.96;97275.28;4871235;29;20068;-68
2022/06/11 04:39:15;;;;;;;63.70;22.60;;;;;;;39.24;37.85;97280.25;4871360;29;20311;-68
2022/06/11 04:41:58;;;;;;;67.32;17.65;;;;;;;39.06;34.95;97288.78;4855490;29;20142;-68
2022/06/11 04:44:55;;;;;;;65.60;18.05;;;;;;;39.22;36.28;97287.78;4873285;29;20072;-67
2022/06/11 04:47:51;;;;;;;52.38;17.40;;;;;;;39.42;34.58;97287.91;4841587;29;20050;-67
2022/06/11 04:50:40;;;;;;;64.72;17.98;;;;;;;39.13;33.86;97295.56;4834654;29;20081;-67
2022/06/11 04:53:22;;;;;;;70.20;15.85;;;;;;;39.37;33.87;97307.53;4836948;29;20054;-67
2022/06/11 04:56:23;;;;;;;45.25;11.00;;;;;;;39.48;32.65;97311.09;4832976;29;20061;-67
2022/06/11 04:58:59;;;;;;;30.08;10.48;;;;;;;39.20;30.61;97306.91;4834560;29;20052;-69
2022/06/11 05:01:57;;;;;;;35.33;10.68;;;;;;;39.65;31.06;97303.59;4834528;29;20123;-68
2022/06/11 05:04:33;;;;;;;30.80;10.10;;;;;;;39.60;31.65;97313.56;4835131;29;20054;-69
2022/06/11 05:07:22;;;;;;;;;;;;;;;39.88;31.54;97306.91;4831628;29;20411;-70
2022/06/11 05:10:13;;;;;;;35.08;10.90;;;;;;;39.47;30.10;97311.38;4834010;29;19983;-66
2022/06/11 05:12:55;;;;;;;37.60;10.38;;;;;;;39.52;31.05;97308.66;4832917;29;20054;-64
2022/06/11 05:15:49;;;;;;;35.25;10.18;;;;;;;39.31;33.34;97305.06;4833600;29;20054;-66
2022/06/11 05:18:32;;;;;;;40.65;10.90;;;;;;;39.05;31.14;97306.84;4839830;29;20114;-64
2022/06/11 05:21:21;;;;;;;36.63;9.10;;;;;;;38.71;31.06;97302.84;4834141;29;20058;-64
2022/06/11 05:24:03;;;;;;;41.90;9.80;;;;;;;38.88;31.23;97309.66;4834465;29;20042;-64
2022/06/11 05:27:06;;;;;;;41.65;11.00;;;;;;;39.13;33.07;97302.81;4832847;29;20386;-64
2022/06/11 05:29:59;;;;;;;40.05;8.77;;;;;;;39.44;31.97;97307.31;4832941;29;20100;-64
2022/06/11 05:32:49;;;;;;;37.63;9.05;;;;;;;39.71;31.96;97310.63;4833736;29;20126;-63
2022/06/11 05:35:33;;;;;;;40.20;9.27;;;;;;;39.73;30.54;97299.56;4827535;29;20061;-63
2022/06/11 05:38:25;;;;;;;36.92;8.35;;;;;;;40.10;32.00;97304.78;4833540;29;20054;-63
2022/06/11 05:41:08;;;;;;;32.05;8.23;;;;;;;39.94;34.38;97305.84;4834355;29;20057;-63
2022/06/11 05:43:57;;;;;;;36.10;8.10;;;;;;;39.61;32.27;97310.59;4833423;29;20085;-63
2022/06/11 05:46:46;;;;;;;;;;;;;;;39.15;30.59;97308.78;4850609;29;20068;-63
2022/06/11 05:49:51;;;;;;;33.45;9.85;;;;;;;39.11;30.90;97310.38;4852466;29;19939;-63
2022/06/11 05:52:33;;;;;;;32.05;7.25;;;;;;;39.56;32.53;97313.28;4871045;29;20049;-64
2022/06/11 05:55:25;;;;;;;34.05;8.18;;;;;;;39.66;31.46;97305.22;4840276;29;20143;-63
2022/06/11 05:58:10;;;;;;;33.00;7.55;;;;;;;39.82;29.63;97310.69;4869242;29;20053;-63
2022/06/11 06:01:01;;;;;;;;;;;;;;;39.99;31.85;97309.34;4871305;29;20113;-65
2022/06/11 06:03:49;;;;;;;38.42;8.27;;;;;;;39.86;33.48;97309.06;4876660;29;20002;-66
2022/06/11 06:06:38;;;;;;;48.55;8.45;;;;;;;39.83;31.95;97312.31;4870485;29;20136;-65
2022/06/11 06:09:20;;;;;;;51.03;9.00;;;;;;;40.09;32.30;97308.56;4864606;29;20053;-67
2022/06/11 06:12:16;;;;;;;43.72;10.23;;;;;;;40.13;32.88;97302.38;4864853;29;20055;-65
2022/06/11 06:15:00;;;;;;;56.75;9.65;;;;;;;40.10;34.00;97304.78;4870487;29;20402;-66
2022/06/11 06:17:56;;;;;;;48.60;10.30;;;;;;;40.02;32.08;97302.63;4868636;29;20053;-67
2022/06/11 06:20:32;;;;;;;44.55;8.23;;;;;;;40.23;32.65;97303.47;4870008;29;20064;-66
2022/06/11 06:23:27;;;;;;;41.43;8.63;;;;;;;40.26;31.69;97308.31;4868698;29;20392;-65
2022/06/11 06:26:03;;;;;;;31.98;7.72;;;;;;;40.09;31.81;97303.16;4868338;29;20485;-67
2022/06/11 06:28:58;;;;;;;63.67;8.38;;;;;;;40.10;32.96;97294.78;4851221;29;20056;-65
2022/06/11 06:31:35;;;;;;;58.28;8.63;;;;;;;40.34;35.10;97300.50;4869434;29;20089;-66
2022/06/11 06:34:30;;;;;;;51.45;9.80;;;;;;;40.20;35.72;97285.91;4868585;29;20052;-65
2022/06/11 06:37:06;;;;;;;43.45;7.88;;;;;;;40.29;35.68;97294.31;4868121;29;20049;-67
2022/06/11 06:40:00;;;;;;;44.65;7.85;;;;;;;40.51;37.10;97289.41;4869445;29;20069;-65
2022/06/11 06:42:36;;;;;;;50.75;7.93;;;;;;;40.55;37.15;97281.59;4868730;29;20049;-67
2022/06/11 06:45:31;;;;;;;;;;;;;;;40.45;38.93;97296.72;4855503;29;20053;-67
2022/06/11 06:48:20;;;;;;;43.08;8.60;;;;;;;40.40;40.01;97277.81;4866296;29;19951;-66
2022/06/11 06:51:11;;;;;;;45.28;8.25;;;;;;;40.08;41.14;97278.06;4865856;29;20049;-66
2022/06/11 06:53:59;;;;;;;45.17;7.78;;;;;;;40.13;40.90;97278.06;4867019;29;20045;-68
2022/06/11 06:56:41;;;;;;;51.57;9.43;;;;;;;40.22;43.32;97275.66;4868514;29;20049;-68
2022/06/11 06:59:30;;;;;;;42.58;8.27;;;;;;;40.11;41.85;97269.44;4870405;29;20636;-68
2022/06/11 07:02:13;;;;;;;51.37;7.93;;;;;;;40.16;41.88;97272.13;4854925;29;20171;-67
2022/06/11 07:05:01;;;;;;;54.25;8.77;;;;;;;40.20;39.36;97266.19;4858556;29;20114;-68
2022/06/11 07:07:47;;;;;;;49.13;9.40;;;;;;;40.32;41.08;97262.16;4873213;29;20053;-69
2022/06/11 07:10:35;;;;;;;48.55;7.50;;;;;;;40.38;37.90;97266.50;4873373;29;20362;-67
2022/06/11 07:13:18;;;;;;;44.38;8.60;;;;;;;40.49;36.75;97265.38;4869582;29;20143;-67
2022/06/11 07:16:08;;;;;;;53.15;7.85;;;;;;;40.61;37.57;97262.41;4871926;29;20144;-67
2022/06/11 07:18:51;;;;;;;;;;;;;;;40.29;35.94;97249.22;4871348;29;20495;-67
2022/06/11 07:21:53;;;;;;;40.90;7.95;;;;;;;40.34;37.23;97243.00;4856862;29;20035;-67
2022/06/11 07:24:42;;;;;;;32.40;8.77;;;;;;;40.47;40.40;97245.94;4860984;29;20358;-66
2022/06/11 07:27:29;;;;;;;41.25;7.85;;;;;;;40.40;36.67;97241.88;4872268;29;20489;-67
2022/06/11 07:30:31;;;;;;;44.33;8.05;;;;;;;40.38;36.76;97225.19;4870190;29;20390;-70
2022/06/11 07:33:14;;;;;;;47.92;9.93;;;;;;;40.36;38.42;97222.75;4868327;29;20067;-66
2022/06/11 07:36:04;;;;;;;54.17;7.90;;;;;;;40.10;35.94;97219.22;4851004;29;20485;-67
2022/06/11 07:38:48;;;;;;;51.17;8.25;;;;;;;40.19;39.70;97216.78;4873560;29;20053;-68
2022/06/11 07:41:37;;;;;;;34.20;7.30;;;;;;;40.30;36.74;97213.03;4892041;29;20120;-71
2022/06/11 07:44:24;;;;;;;42.28;7.88;;;;;;;40.39;36.36;97210.59;4886251;29;20080;-73
2022/06/11 07:47:13;;;;;;;31.70;8.98;;;;;;;40.42;37.59;97216.25;4851450;29;20093;-67
2022/06/11 07:50:02;;;;;;;37.30;7.43;;;;;;;40.38;34.26;97206.28;4871726;29;20048;-71
2022/06/11 07:52:52;;;;;;;45.20;7.97;;;;;;;40.38;38.28;97204.38;4860297;29;20089;-70
2022/06/11 07:55:35;;;;;;;27.27;7.05;;;;;;;40.53;40.18;97204.34;4871793;29;20049;-69
2022/06/11 07:58:28;;;;;;;21.38;6.63;;;;;;;40.45;37.56;97204.09;4872017;29;20568;-69
2022/06/11 08:01:10;;;;;;;43.80;8.38;;;;;;;40.35;34.29;97198.72;4872446;29;20064;-70
2022/06/11 08:04:06;;;;;;;35.70;6.97;;;;;;;40.37;39.37;97191.97;4873842;29;20049;-71
2022/06/11 08:06:42;;;;;;;33.35;7.15;;;;;;;40.20;34.07;97194.13;4871180;29;20091;-70
2022/06/11 08:09:30;;;;;;;39.97;8.53;;;;;;;40.36;39.63;97201.13;4862721;29;20082;-68
2022/06/11 08:12:13;;;;;;;47.57;7.87;;;;;;;40.38;38.29;97198.97;4852798;29;20080;-69
2022/06/11 08:15:03;;;;;;;33.22;7.40;;;;;;;40.25;39.63;97185.22;4868555;29;20060;-68
2022/06/11 08:17:53;;;;;;;32.03;7.78;;;;;;;40.09;39.83;97185.22;4857912;29;20101;-68
2022/06/11 08:20:36;;;;;;;35.70;8.40;;;;;;;40.16;39.83;97179.53;4871207;29;20134;-70
2022/06/11 08:23:27;;;;;;;39.97;8.40;;;;;;;40.10;37.91;97186.03;4865178;29;20057;-68
2022/06/11 08:26:15;;;;;;;45.10;7.95;;;;;;;40.20;42.25;97177.91;4853484;29;20089;-69
2022/06/11 08:29:04;;;;;;;42.13;8.75;;;;;;;40.02;38.02;97173.88;4865945;29;20063;-68
2022/06/11 08:31:47;;;;;;;59.17;9.70;;;;;;;40.15;37.65;97176.03;4873200;29;20063;-69
2022/06/11 08:34:35;;;;;;;45.00;8.75;;;;;;;40.24;38.44;97172.75;4874842;29;20052;-69
2022/06/11 08:37:18;;;;;;;44.70;9.98;;;;;;;40.21;38.36;97171.44;4877335;29;20056;-70
2022/06/11 08:40:08;;;;;;;41.08;8.30;;;;;;;40.24;37.46;97164.66;4879550;29;20069;-70
2022/06/11 08:43:01;;;;;;;41.45;8.15;;;;;;;40.22;37.82;97156.06;4877288;29;20057;-69
2022/06/11 08:46:00;;;;;;;37.20;8.77;;;;;;;40.26;37.22;97160.66;4848399;29;20561;-69
2022/06/11 08:49:15;;;;;;;36.75;7.60;;;;;;;40.23;38.21;97144.97;4870184;29;20411;-70
2022/06/11 08:52:21;;;;;;;33.90;8.05;;;;;;;40.25;37.55;97150.13;4875070;29;20140;-69
2022/06/11 08:54:59;;;;;;;29.88;6.30;;;;;;;40.04;34.40;97143.94;4888100;29;20076;-70
2022/06/11 08:58:01;;;;;;;47.30;9.38;;;;;;;40.21;38.93;97141.75;4869229;29;20067;-71
2022/06/11 09:00:48;;;;;;;35.10;7.50;;;;;;;40.23;36.35;97134.16;4889071;29;20059;-72
2022/06/11 09:04:04;;;;;;;41.08;7.43;;;;;;;40.21;37.78;97122.84;4870274;29;20048;-69
2022/06/11 09:07:14;;;;;;;25.58;7.25;;;;;;;40.21;37.28;97125.56;4871119;29;20168;-70
2022/06/11 09:10:48;;;;;;;35.22;7.18;;;;;;;40.23;36.51;97117.19;4853738;29;20113;-70
2022/06/11 09:13:58;;;;;;;48.95;9.25;;;;;;;40.17;35.10;97121.75;4853389;29;20057;-72
2022/06/11 09:16:55;;;;;;;46.22;7.45;;;;;;;40.20;36.18;97115.81;4863358;29;20052;-71
2022/06/11 09:20:01;;;;;;;34.05;8.25;;;;;;;40.24;35.83;97116.06;4862354;29;20142;-70
2022/06/11 09:23:21;;;;;;;43.13;7.43;;;;;;;40.13;33.53;97099.13;4861116;29;20374;-71
2022/06/11 09:26:21;;;;;;;36.45;7.40;;;;;;;40.20;34.95;97099.63;4867770;29;20064;-70
2022/06/11 09:29:12;;;;;;;;;;;;;;;40.24;36.00;97100.69;4853758;29;20048;-70
2022/06/11 09:32:17;;;;;;;39.60;7.57;;;;;;;40.27;35.92;97105.56;4871600;29;19927;-71
2022/06/11 09:35:29;;;;;;;31.38;7.10;;;;;;;40.22;35.49;97102.06;4869983;29;20052;-67
2022/06/11 09:38:30;;;;;;;28.65;7.18;;;;;;;40.04;37.87;97084.56;4870005;29;20210;-70
2022/06/11 09:41:21;;;;;;;34.42;7.25;;;;;;;39.87;38.77;97090.25;4870821;29;20049;-70
2022/06/11 09:44:19;;;;;;;31.40;6.65;;;;;;;39.76;39.54;97081.31;4866782;29;20097;-68
2022/06/11 09:47:11;;;;;;;38.60;7.60;;;;;;;39.67;33.81;97080.25;4862897;29;20751;-68
2022/06/11 09:50:07;;;;;;;39.20;6.70;;;;;;;39.67;38.55;97076.78;4851658;29;20049;-68
2022/06/11 09:53:26;;;;;;;33.50;7.45;;;;;;;39.59;39.27;97075.41;4852932;29;20399;-68
2022/06/11 09:56:25;;;;;;;26.88;7.40;;;;;;;39.51;39.10;97075.97;4889791;29;20044;-67
2022/06/11 09:59:20;;;;;;;31.95;6.50;;;;;;;39.40;39.66;97074.34;4871298;29;20065;-68
2022/06/11 10:02:09;;;;;;;35.20;7.35;;;;;;;39.40;39.31;97074.34;4869290;29;20436;-68
2022/06/11 10:05:03;;;;;;;39.60;8.68;;;;;;;39.51;35.25;97065.19;4869577;29;20089;-67
2022/06/11 10:07:53;;;;;;;38.20;7.07;;;;;;;39.36;39.36;97062.44;4867984;29;20069;-68
2022/06/11 10:10:45;;;;;;;31.17;6.50;;;;;;;39.51;34.35;97069.78;4851102;29;20086;-68
2022/06/11 10:13:53;;;;;;;39.78;6.60;;;;;;;39.49;35.99;97061.16;4854710;29;20064;-68
2022/06/11 10:16:42;;;;;;;25.10;5.78;;;;;;;39.35;38.44;97056.25;4869065;29;20053;-68
2022/06/11 10:19:38;;;;;;;28.02;5.72;;;;;;;39.21;38.33;97055.16;4870653;29;20052;-69
2022/06/11 10:22:23;;;;;;;33.05;7.90;;;;;;;39.23;35.13;97052.22;4870781;29;20053;-65
2022/06/11 10:25:12;;;;;;;34.08;6.70;;;;;;;39.28;35.45;97049.50;4870749;29;20469;-66
2022/06/11 10:28:31;;;;;;;30.17;6.75;;;;;;;39.26;39.12;97041.72;4870622;29;20067;-68
2022/06/11 10:31:22;;;;;;;23.50;7.53;;;;;;;39.05;40.11;97037.38;4869593;29;20053;-65
2022/06/11 10:34:28;;;;;;;39.13;6.70;;;;;;;39.00;39.45;97032.78;4870713;29;20159;-67
2022/06/11 10:37:38;;;;;;;37.40;7.38;;;;;;;39.00;36.76;97032.78;4874392;29;20053;-67
2022/06/11 10:40:38;;;;;;;35.35;6.65;;;;;;;39.17;36.54;97029.03;4874445;29;20072;-68
2022/06/11 10:43:51;;;;;;;38.25;6.85;;;;;;;39.11;36.81;97022.84;4854973;29;20071;-67
2022/06/11 10:46:43;;;;;;;37.30;7.70;;;;;;;38.95;40.36;97021.22;4875029;29;20186;-67
2022/06/11 10:49:27;;;;;;;33.28;6.60;;;;;;;38.78;38.56;97007.97;4874558;29;20140;-67
2022/06/11 10:52:34;;;;;;;35.08;7.95;;;;;;;38.76;37.73;96999.34;4869086;29;20045;-66
2022/06/11 10:56:02;;;;;;;28.50;6.97;;;;;;;38.66;39.49;96999.31;4874187;29;20067;-67
2022/06/11 10:58:57;;;;;;;46.83;7.82;;;;;;;38.90;35.74;97008.50;4854372;29;20610;-68
2022/06/11 11:01:46;;;;;;;36.38;7.15;;;;;;;38.93;36.69;97005.28;4856292;29;20237;-67
2022/06/11 11:04:53;;;;;;;27.75;6.50;;;;;;;38.91;36.16;97004.72;4856413;29;20053;-67
2022/06/11 11:08:01;;;;;;;28.20;6.70;;;;;;;38.87;38.34;96995.59;4855651;29;20128;-66
2022/06/11 11:10:51;;;;;;;25.50;6.90;;;;;;;38.85;39.04;96989.66;4857605;29;20722;-67
2022/06/11 11:13:47;;;;;;;33.17;7.97;;;;;;;38.70;39.00;96984.25;4865152;29;20085;-67
2022/06/11 11:16:36;;;;;;;36.28;7.43;;;;;;;38.79;37.79;96992.59;4866608;29;20064;-67
2022/06/11 11:19:31;;;;;;;47.05;7.13;;;;;;;38.86;37.45;96985.06;4876339;29;20056;-69
2022/06/11 11:22:21;;;;;;;27.92;6.18;;;;;;;38.69;38.76;96977.25;4874732;29;20067;-67
2022/06/11 11:25:17;;;;;;;24.05;6.50;;;;;;;38.61;37.98;96980.47;4874886;29;20048;-67
2022/06/11 11:28:01;;;;;;;36.20;6.10;;;;;;;38.55;40.92;96965.38;4873009;29;20045;-68
2022/06/11 11:30:51;;;;;;;24.48;5.82;;;;;;;38.49;39.47;96969.88;4873902;29;20164;-67
2022/06/11 11:33:37;;;;;;;;;;;;;;;38.43;40.13;96968.28;4874492;29;20052;-68
2022/06/11 11:36:26;;;;;;;38.35;6.97;;;;;;;38.52;39.49;96961.31;4873200;29;19932;-68
2022/06/11 11:39:15;;;;;;;34.35;7.05;;;;;;;38.50;36.48;96959.97;4873211;29;20091;-68
2022/06/11 11:41:57;;;;;;;28.05;6.90;;;;;;;38.35;39.98;96949.13;4873992;29;20124;-68
2022/06/11 11:44:57;;;;;;;30.95;6.35;;;;;;;38.28;40.03;96938.63;4873354;29;20077;-68
2022/06/11 11:47:44;;;;;;;26.25;6.47;;;;;;;38.13;43.33;96947.47;4873171;29;20128;-68
2022/06/11 11:50:39;;;;;;;27.33;6.57;;;;;;;37.99;43.28;96940.94;4873565;29;20060;-68
2022/06/11 11:53:33;;;;;;;29.02;6.47;;;;;;;37.90;44.17;96932.56;4876680;29;20155;-67
2022/06/11 11:56:37;;;;;;;31.65;6.20;;;;;;;37.84;43.27;96938.16;4891768;29;20088;-68
2022/06/11 11:59:33;;;;;;;36.10;6.63;;;;;;;37.98;42.12;96931.25;4892033;29;20076;-67
2022/06/11 12:02:31;;;;;;;32.85;7.40;;;;;;;37.83;44.00;96933.88;4868426;29;20145;-68
2022/06/11 12:05:35;;;;;;;34.85;7.18;;;;;;;37.77;42.97;96933.03;4855710;29;20056;-67
2022/06/11 12:08:36;;;;;;;40.88;7.45;;;;;;;37.88;40.70;96928.50;4871332;29;20145;-67
2022/06/11 12:11:30;;;;;;;43.28;8.10;;;;;;;37.95;41.20;96930.94;4872193;29;20052;-68
2022/06/11 12:14:27;;;;;;;55.72;9.85;;;;;;;38.10;41.13;96931.03;4872438;29;20157;-66
2022/06/11 12:17:44;;;;;;;49.75;6.57;;;;;;;37.97;43.17;96924.25;4871929;29;20102;-66
2022/06/11 12:21:05;;;;;;;42.80;7.90;;;;;;;37.89;42.18;96924.75;4863824;29;20121;-66
2022/06/11 12:24:00;;;;;;;36.15;8.20;;;;;;;37.84;42.34;96922.03;4876758;29;20056;-66
2022/06/11 12:26:44;;;;;;;38.88;7.05;;;;;;;37.79;43.05;96916.63;4870439;29;20055;-68
2022/06/11 12:29:41;;;;;;;39.75;7.90;;;;;;;37.91;40.93;96920.75;4871025;29;20462;-68
2022/06/11 12:32:26;;;;;;;37.13;6.60;;;;;;;37.89;41.64;96908.63;4871175;29;20060;-65
2022/06/11 12:35:24;;;;;;;36.97;7.20;;;;;;;37.89;41.43;96908.63;4872280;29;20129;-67
2022/06/11 12:38:44;;;;;;;45.92;7.65;;;;;;;37.89;39.24;96909.44;4872803;29;20049;-65
2022/06/11 12:41:45;;;;;;;32.85;7.18;;;;;;;37.76;45.41;96903.72;4863771;29;20045;-68
2022/06/11 12:44:56;;;;;;;44.47;8.05;;;;;;;37.60;43.98;96904.75;4872864;29;20060;-69
2022/06/11 12:48:09;;;;;;;34.60;6.40;;;;;;;37.53;43.94;96900.34;4870278;29;20064;-69
2022/06/11 12:51:12;;;;;;;50.37;7.43;;;;;;;37.46;42.40;96894.41;4847111;29;20605;-68
2022/06/11 12:54:19;;;;;;;31.85;5.97;;;;;;;37.36;44.60;96894.34;4862401;29;20042;-68
2022/06/11 12:57:32;;;;;;;39.42;7.05;;;;;;;37.31;42.18;96894.34;4840689;29;20163;-67
2022/06/11 13:00:29;;;;;;;39.65;7.75;;;;;;;37.26;41.92;96888.13;4835932;29;20087;-70
2022/06/11 13:03:39;;;;;;;37.55;6.45;;;;;;;37.19;43.35;96887.56;4842257;29;20509;-67
2022/06/11 13:06:48;;;;;;;44.78;8.93;;;;;;;37.07;43.28;96887.69;4843572;29;20053;-68
2022/06/11 13:09:47;;;;;;;40.53;7.28;;;;;;;37.00;43.89;96901.34;4844261;29;20370;-68
2022/06/11 13:13:03;;;;;;;40.95;7.65;;;;;;;37.12;42.96;96903.84;4841661;29;20057;-67
2022/06/11 13:16:05;;;;;;;30.73;6.60;;;;;;;37.09;45.12;96899.00;4853394;29;20061;-68
2022/06/11 13:19:16;;;;;;;58.22;7.93;;;;;;;37.23;43.19;96900.19;4832526;29;20078;-69
2022/06/11 13:22:27;;;;;;;39.40;6.50;;;;;;;37.45;42.66;96908.91;4833442;29;20135;-66
2022/06/11 13:25:28;;;;;;;51.00;9.07;;;;;;;37.39;43.11;96899.22;4841965;29;20045;-68
2022/06/11 13:29:08;;;;;;;50.10;8.77;;;;;;;37.39;43.35;96899.22;4844289;29;20041;-67